createdAt,value
2019-01-03T00:02:14.783Z,1.65
2019-01-03T00:04:41.485Z,1.57
2019-01-03T00:07:08.234Z,0.70
2019-01-03T00:09:34.764Z,0.90
2019-01-03T00:12:01.393Z,0.50
2019-01-03T00:14:28.575Z,0.60
2019-01-03T00:16:55.261Z,0.75
2019-01-03T00:19:21.911Z,0.60
2019-01-03T00:21:48.548Z,0.65
2019-01-03T00:24:15.230Z,0.95
2019-01-03T00:26:41.824Z,0.50
2019-01-03T00:29:08.456Z,0.88
2019-01-03T00:31:35.180Z,0.78
2019-01-03T00:34:01.733Z,0.82
2019-01-03T00:36:28.427Z,0.93
2019-01-03T00:38:55.066Z,1.40
2019-01-03T00:41:21.831Z,1.17
2019-01-03T00:43:48.462Z,1.25
2019-01-03T00:46:15.173Z,1.40
2019-01-03T00:48:41.762Z,1.85
2019-01-03T00:51:08.371Z,1.50
2019-01-03T00:53:35.028Z,1.75
2019-01-03T00:56:01.655Z,1.57
2019-01-03T00:58:28.283Z,1.22
2019-01-03T01:00:55.054Z,1.15
2019-01-03T01:03:21.739Z,1.55
2019-01-03T01:05:48.458Z,1.50
2019-01-03T01:08:15.081Z,1.20
2019-01-03T01:10:41.634Z,1.05
2019-01-03T01:13:08.641Z,0.90
2019-01-03T01:15:35.189Z,1.10
2019-01-03T01:18:01.788Z,0.95
2019-01-03T01:20:28.384Z,0.78
2019-01-03T01:22:55.083Z,0.90
2019-01-03T01:25:21.710Z,0.98
2019-01-03T01:27:48.606Z,1.05
2019-01-03T01:30:15.133Z,0.82
2019-01-03T01:32:41.718Z,1.07
2019-01-03T01:35:08.452Z,1.00
2019-01-03T01:37:35.101Z,1.10
2019-01-03T01:40:01.652Z,0.53
2019-01-03T01:42:28.951Z,0.80
2019-01-03T01:44:55.646Z,1.02
2019-01-03T01:47:22.370Z,0.93
2019-01-03T01:49:49.092Z,0.78
2019-01-03T01:52:15.736Z,0.80
2019-01-03T01:54:42.391Z,1.80
2019-01-03T01:57:09.019Z,0.85
2019-01-03T01:59:35.669Z,0.90
2019-01-03T02:02:02.310Z,1.25
2019-01-03T02:04:28.950Z,0.60
2019-01-03T02:06:55.811Z,0.80
2019-01-03T02:09:22.492Z,0.90
2019-01-03T02:11:49.325Z,1.20
2019-01-03T02:14:15.985Z,1.15
2019-01-03T02:16:42.673Z,1.00
2019-01-03T02:19:09.445Z,0.88
2019-01-03T02:21:36.476Z,1.40
2019-01-03T02:24:03.384Z,1.00
2019-01-03T02:26:30.656Z,1.17
2019-01-03T02:28:57.596Z,1.15
2019-01-03T02:31:24.512Z,1.60
2019-01-03T02:33:51.559Z,1.10
2019-01-03T02:36:18.308Z,0.80
2019-01-03T02:38:45.093Z,0.72
2019-01-03T02:41:12.061Z,0.80
2019-01-03T02:43:38.932Z,1.00
2019-01-03T02:46:09.053Z,1.40
2019-01-03T02:48:37.755Z,0.80
2019-01-03T02:51:04.627Z,1.05
2019-01-03T02:53:31.794Z,1.07
2019-01-03T02:55:58.669Z,2.10
2019-01-03T02:58:38.649Z,1.22
2019-01-03T03:00:56.890Z,1.20
2019-01-03T03:03:24.261Z,1.40
2019-01-03T03:05:51.248Z,1.22
2019-01-03T03:08:20.990Z,1.42
2019-01-03T03:10:48.122Z,1.42
2019-01-03T03:13:15.201Z,1.62
2019-01-03T03:15:41.951Z,1.10
2019-01-03T03:18:09.128Z,1.70
2019-01-03T03:20:36.025Z,1.82
2019-01-03T03:23:03.164Z,2.05
2019-01-03T03:25:30.324Z,2.22
2019-01-03T03:30:45.351Z,3.10
2019-01-03T03:33:12.488Z,3.17
2019-01-03T03:35:43.681Z,2.40
2019-01-03T03:38:12.685Z,2.42
2019-01-03T03:40:39.550Z,2.30
2019-01-03T03:43:09.749Z,2.08
2019-01-03T03:45:37.056Z,1.98
2019-01-03T03:50:35.293Z,1.72
2019-01-03T03:53:02.762Z,1.20
2019-01-03T03:55:29.942Z,0.80
2019-01-03T03:57:57.209Z,0.60
2019-01-03T04:00:24.281Z,0.37
2019-01-03T04:02:51.349Z,0.42
2019-01-03T04:05:18.081Z,0.33
2019-01-03T04:07:45.018Z,0.45
2019-01-03T04:10:11.682Z,0.30
2019-01-03T04:12:38.308Z,0.40
2019-01-03T04:15:04.944Z,0.40
2019-01-03T04:17:31.744Z,0.50
2019-01-03T04:19:58.557Z,0.68
2019-01-03T04:22:25.390Z,0.98
2019-01-03T04:24:51.917Z,0.37
2019-01-03T04:27:18.695Z,0.37
2019-01-03T04:29:45.333Z,0.55
2019-01-03T04:32:11.870Z,0.60
2019-01-03T04:34:38.393Z,0.53
2019-01-03T04:37:05.055Z,0.35
2019-01-03T04:39:31.922Z,0.88
2019-01-03T04:41:58.643Z,0.70
2019-01-03T04:44:25.430Z,0.60
2019-01-03T04:46:51.963Z,0.30
2019-01-03T04:49:18.757Z,0.40
2019-01-03T04:51:45.480Z,0.40
2019-01-03T04:54:12.310Z,0.53
2019-01-03T04:56:38.875Z,0.50
2019-01-03T04:59:05.492Z,0.42
2019-01-03T05:01:32.295Z,0.50
2019-01-03T05:03:59.171Z,0.40
2019-01-03T05:06:25.963Z,0.40
2019-01-03T05:08:55.435Z,0.40
2019-01-03T05:11:22.064Z,0.40
2019-01-03T05:13:48.752Z,1.10
2019-01-03T05:16:15.369Z,0.30
2019-01-03T05:18:42.139Z,0.70
2019-01-03T05:21:08.890Z,0.70
2019-01-03T05:23:35.611Z,0.50
2019-01-03T05:26:02.230Z,0.70
2019-01-03T05:28:30.295Z,0.65
2019-01-03T05:30:57.134Z,0.80
2019-01-03T05:33:23.880Z,0.40
2019-01-03T05:35:50.559Z,0.80
2019-01-03T05:38:17.266Z,0.88
2019-01-03T05:40:43.900Z,0.50
2019-01-03T05:43:10.618Z,1.67
2019-01-03T05:45:37.292Z,1.15
2019-01-03T05:48:04.055Z,1.10
2019-01-03T05:50:30.778Z,1.40
2019-01-03T05:52:57.573Z,2.58
2019-01-03T05:55:24.133Z,1.80
2019-01-03T05:57:50.757Z,1.50
2019-01-03T06:00:17.326Z,1.35
2019-01-03T06:02:43.985Z,2.70
2019-01-03T06:05:10.762Z,3.37
2019-01-03T06:07:37.284Z,4.33
2019-01-03T06:10:04.069Z,4.42
2019-01-03T06:12:31.105Z,3.62
2019-01-03T06:14:57.807Z,4.90
2019-01-03T06:17:24.360Z,4.17
2019-01-03T06:19:51.146Z,5.22
2019-01-03T06:22:17.754Z,4.60
2019-01-03T06:24:44.378Z,5.15
2019-01-03T06:27:11.022Z,4.37
2019-01-03T06:29:37.771Z,5.60
2019-01-03T06:32:04.464Z,4.85
2019-01-03T06:34:31.262Z,5.47
2019-01-03T06:36:57.984Z,4.53
2019-01-03T06:39:24.784Z,3.55
2019-01-03T06:41:51.342Z,4.50
2019-01-03T06:44:18.151Z,5.87
2019-01-03T06:46:45.182Z,5.30
2019-01-03T06:49:11.905Z,6.37
2019-01-03T06:51:38.577Z,3.22
2019-01-03T06:54:05.457Z,3.77
2019-01-03T06:56:32.095Z,4.03
2019-01-03T06:58:58.794Z,2.85
2019-01-03T07:01:25.405Z,2.90
2019-01-03T07:03:52.063Z,4.30
2019-01-03T07:06:18.708Z,3.17
2019-01-03T07:08:45.274Z,2.65
2019-01-03T07:11:11.799Z,2.87
2019-01-03T07:13:38.567Z,2.70
2019-01-03T07:16:05.184Z,3.15
2019-01-03T07:18:31.926Z,3.20
2019-01-03T07:20:58.540Z,3.47
2019-01-03T07:23:25.103Z,2.90
2019-01-03T07:25:51.664Z,4.05
2019-01-03T07:28:18.277Z,3.98
2019-01-03T07:30:45.015Z,4.15
2019-01-03T07:33:11.559Z,1.90
2019-01-03T07:35:38.709Z,0.90
2019-01-03T07:38:05.285Z,0.90
2019-01-03T07:40:31.881Z,0.45
2019-01-03T07:42:58.760Z,0.70
2019-01-03T07:45:25.412Z,0.40
2019-01-03T07:47:52.054Z,0.60
2019-01-03T07:50:18.793Z,0.65
2019-01-03T07:52:45.408Z,0.50
2019-01-03T07:55:12.178Z,0.50
2019-01-03T07:57:39.134Z,0.53
2019-01-03T08:00:06.416Z,0.30
2019-01-03T08:02:33.259Z,0.30
2019-01-03T08:05:00.247Z,0.33
2019-01-03T08:07:27.586Z,0.50
2019-01-03T08:09:54.796Z,0.47
2019-01-03T08:12:23.701Z,1.37
2019-01-03T08:14:50.449Z,1.12
2019-01-03T08:17:17.111Z,1.27
2019-01-03T08:19:44.166Z,1.67
2019-01-03T08:22:11.248Z,1.70
2019-01-03T08:24:38.313Z,1.92
2019-01-03T08:27:05.107Z,2.58
2019-01-03T08:29:31.975Z,1.90
2019-01-03T08:31:58.841Z,2.47
2019-01-03T08:34:25.600Z,3.22
2019-01-03T08:36:52.650Z,3.30
2019-01-03T08:39:19.714Z,3.65
2019-01-03T08:41:46.629Z,4.20
2019-01-03T08:44:13.474Z,6.85
2019-01-03T08:46:40.315Z,10.15
2019-01-03T08:49:07.632Z,7.12
2019-01-03T08:51:34.750Z,6.87
2019-01-03T08:54:01.716Z,7.72
2019-01-03T08:56:28.630Z,7.67
2019-01-03T08:58:55.402Z,5.08
2019-01-03T09:01:22.170Z,3.45
2019-01-03T09:03:48.908Z,3.20
2019-01-03T09:06:15.751Z,2.35
2019-01-03T09:08:42.683Z,2.10
2019-01-03T09:11:10.390Z,1.87
2019-01-03T09:13:37.252Z,2.22
2019-01-03T09:16:04.045Z,1.52
2019-01-03T09:18:31.105Z,1.45
2019-01-03T09:20:57.984Z,1.12
2019-01-03T09:23:24.723Z,0.80
2019-01-03T09:25:52.714Z,1.22
2019-01-03T09:28:19.582Z,3.22
2019-01-03T09:30:46.681Z,1.55
2019-01-03T09:33:13.513Z,0.70
2019-01-03T09:35:40.476Z,1.40
2019-01-03T09:38:07.227Z,1.20
2019-01-03T09:40:34.889Z,1.50
2019-01-03T09:43:01.687Z,1.57
2019-01-03T09:45:28.843Z,0.80
2019-01-03T09:47:56.330Z,1.60
2019-01-03T09:50:23.125Z,1.00
2019-01-03T09:52:49.826Z,0.90
2019-01-03T09:55:16.931Z,1.00
2019-01-03T09:57:43.687Z,0.70
2019-01-03T10:00:10.854Z,0.50
2019-01-03T10:02:37.840Z,0.98
2019-01-03T10:05:05.100Z,0.35
2019-01-03T10:07:31.774Z,0.53
2019-01-03T10:10:00.277Z,0.70
2019-01-03T10:12:27.213Z,0.50
2019-01-03T10:14:54.065Z,0.82
2019-01-03T10:17:20.856Z,0.80
2019-01-03T10:19:48.055Z,0.78
2019-01-03T10:22:14.899Z,0.57
2019-01-03T10:24:41.903Z,2.87
2019-01-03T10:27:08.921Z,2.58
2019-01-03T10:29:35.701Z,1.47
2019-01-03T10:32:02.452Z,1.15
2019-01-03T10:34:29.216Z,1.35
2019-01-03T10:36:55.970Z,0.93
2019-01-03T10:39:22.644Z,0.55
2019-01-03T10:41:49.676Z,1.00
2019-01-03T10:44:16.397Z,1.05
2019-01-03T10:46:43.037Z,0.60
2019-01-03T10:49:10.028Z,0.70
2019-01-03T10:51:37.109Z,0.40
2019-01-03T10:54:04.011Z,0.50
2019-01-03T10:56:31.186Z,0.60
2019-01-03T10:58:57.993Z,0.50
2019-01-03T11:01:25.033Z,0.40
2019-01-03T11:03:51.913Z,0.50
2019-01-03T11:06:19.077Z,0.30
2019-01-03T11:08:45.842Z,1.37
2019-01-03T11:11:14.137Z,0.72
2019-01-03T11:13:41.404Z,0.53
2019-01-03T11:16:08.676Z,0.57
2019-01-03T11:18:35.555Z,0.60
2019-01-03T11:21:03.071Z,0.45
2019-01-03T11:23:30.005Z,0.50
2019-01-03T11:25:56.965Z,1.02
2019-01-03T11:28:23.773Z,0.88
2019-01-03T11:30:50.628Z,0.53
2019-01-03T11:33:17.477Z,0.47
2019-01-03T11:35:44.385Z,0.70
2019-01-03T11:38:11.281Z,0.60
2019-01-03T11:40:38.149Z,2.47
2019-01-03T11:43:05.249Z,1.85
2019-01-03T11:45:32.208Z,1.40
2019-01-03T11:47:58.748Z,0.80
2019-01-03T11:50:25.413Z,1.00
2019-01-03T11:52:52.172Z,1.98
2019-01-03T11:55:19.033Z,0.80
2019-01-03T11:57:46.014Z,1.15
2019-01-03T12:00:15.940Z,0.45
2019-01-03T12:02:42.796Z,1.10
2019-01-03T12:05:09.837Z,1.07
2019-01-03T12:07:36.602Z,0.40
2019-01-03T12:10:03.525Z,0.72
2019-01-03T12:12:30.536Z,0.90
2019-01-03T12:14:57.182Z,1.02
2019-01-03T12:17:24.065Z,0.40
2019-01-03T12:19:50.755Z,0.80
2019-01-03T12:22:17.386Z,0.85
2019-01-03T12:24:44.051Z,0.62
2019-01-03T12:27:10.880Z,1.22
2019-01-03T12:29:37.510Z,2.00
2019-01-03T12:32:04.244Z,0.80
2019-01-03T12:34:30.953Z,0.60
2019-01-03T12:36:57.809Z,0.80
2019-01-03T12:39:24.956Z,0.50
2019-01-03T12:41:51.701Z,0.62
2019-01-03T12:44:18.540Z,1.30
2019-01-03T12:46:45.765Z,0.60
2019-01-03T12:49:12.638Z,0.40
2019-01-03T12:51:39.382Z,0.30
2019-01-03T12:54:06.260Z,0.40
2019-01-03T12:56:33.104Z,0.40
2019-01-03T12:58:59.886Z,0.40
2019-01-03T13:01:26.738Z,0.82
2019-01-03T13:03:53.720Z,0.40
2019-01-03T13:08:53.061Z,0.53
2019-01-03T13:11:20.123Z,0.40
2019-01-03T13:13:46.912Z,0.60
2019-01-03T13:16:13.754Z,0.53
2019-01-03T13:18:40.533Z,0.50
2019-01-03T13:21:07.472Z,0.40
2019-01-03T13:23:34.131Z,0.30
2019-01-03T13:26:00.852Z,0.42
2019-01-03T13:28:27.972Z,0.62
2019-01-03T13:30:54.712Z,0.50
2019-01-03T13:33:21.501Z,0.50
2019-01-03T13:35:48.553Z,0.45
2019-01-03T13:38:15.252Z,1.40
2019-01-03T13:40:42.100Z,0.65
2019-01-03T13:43:09.553Z,0.90
2019-01-03T13:45:36.400Z,0.62
2019-01-03T13:48:03.272Z,1.00
2019-01-03T13:50:30.776Z,2.00
2019-01-03T13:52:57.833Z,2.15
2019-01-03T13:55:24.619Z,1.00
2019-01-03T13:57:51.569Z,0.40
2019-01-03T14:00:18.350Z,0.50
2019-01-03T14:02:45.359Z,0.70
2019-01-03T14:05:12.159Z,0.45
2019-01-03T14:07:39.043Z,0.20
2019-01-03T14:10:05.903Z,0.40
2019-01-03T14:12:34.896Z,0.40
2019-01-03T14:15:01.895Z,0.28
2019-01-03T14:17:28.696Z,0.78
2019-01-03T14:19:55.712Z,0.28
2019-01-03T14:22:22.853Z,0.40
2019-01-03T14:24:49.713Z,0.30
2019-01-03T14:27:16.535Z,0.60
2019-01-03T14:29:43.477Z,0.35
2019-01-03T14:32:10.438Z,1.57
2019-01-03T14:34:37.217Z,1.30
2019-01-03T14:37:04.609Z,1.20
2019-01-03T14:39:31.475Z,0.60
2019-01-03T14:41:58.221Z,0.85
2019-01-03T14:44:25.281Z,0.75
2019-01-03T14:46:52.273Z,0.75
2019-01-03T14:49:19.116Z,0.98
2019-01-03T14:51:46.285Z,1.00
2019-01-03T14:54:13.149Z,0.85
2019-01-03T14:56:41.035Z,0.60
2019-01-03T14:59:07.915Z,0.70
2019-01-03T15:01:34.685Z,0.62
2019-01-03T15:04:01.857Z,0.40
2019-01-03T15:06:28.691Z,0.20
2019-01-03T15:08:55.409Z,0.70
2019-01-03T15:11:22.723Z,0.70
2019-01-03T15:13:49.319Z,0.40
2019-01-03T15:16:16.171Z,2.10
2019-01-03T15:18:44.409Z,0.78
2019-01-03T15:21:11.328Z,0.93
2019-01-03T15:23:38.293Z,1.00
2019-01-03T15:26:05.262Z,1.10
2019-01-03T15:28:32.339Z,1.00
2019-01-03T15:30:59.201Z,1.00
2019-01-03T15:33:26.371Z,0.90
2019-01-03T15:35:53.445Z,0.82
2019-01-03T15:38:20.714Z,1.00
2019-01-03T15:40:47.674Z,1.07
2019-01-03T15:43:14.725Z,1.25
2019-01-03T15:45:41.602Z,1.00
2019-01-03T15:48:08.362Z,0.88
2019-01-03T15:50:35.399Z,0.50
2019-01-03T15:53:02.404Z,0.60
2019-01-03T15:55:29.173Z,1.00
2019-01-03T15:57:56.342Z,0.72
2019-01-03T16:00:23.423Z,0.62
2019-01-03T16:02:56.717Z,0.88
2019-01-03T16:05:23.582Z,1.45
2019-01-03T16:07:50.443Z,1.47
2019-01-03T16:10:17.400Z,3.83
2019-01-03T16:12:44.483Z,2.72
2019-01-03T16:15:13.297Z,7.20
2019-01-03T16:17:40.083Z,6.90
2019-01-03T16:20:06.952Z,6.58
2019-01-03T16:22:33.895Z,6.53
2019-01-03T16:25:00.956Z,7.50
2019-01-03T16:27:29.674Z,6.97
2019-01-03T16:29:56.831Z,7.22
2019-01-03T16:32:25.341Z,10.25
2019-01-03T16:34:52.284Z,10.40
2019-01-03T16:37:19.572Z,7.58
2019-01-03T16:39:46.436Z,5.30
2019-01-03T16:42:13.415Z,4.70
2019-01-03T16:44:40.157Z,5.53
2019-01-03T16:47:08.374Z,5.90
2019-01-03T16:49:35.482Z,5.72
2019-01-03T16:52:02.382Z,5.67
2019-01-03T16:54:29.428Z,5.83
2019-01-03T16:56:56.238Z,5.00
2019-01-03T16:59:23.418Z,4.85
2019-01-03T17:01:50.096Z,3.70
2019-01-03T17:04:17.209Z,3.35
2019-01-03T17:06:44.716Z,3.33
2019-01-03T17:09:11.906Z,3.70
2019-01-03T17:11:39.066Z,3.45
2019-01-03T17:14:06.538Z,2.90
2019-01-03T17:16:33.358Z,3.75
2019-01-03T17:19:00.513Z,4.17
2019-01-03T17:21:27.538Z,4.17
2019-01-03T17:23:54.477Z,3.20
2019-01-03T17:26:21.505Z,4.28
2019-01-03T17:28:48.845Z,5.25
2019-01-03T17:31:16.020Z,5.85
2019-01-03T17:33:42.898Z,4.95
2019-01-03T17:36:10.258Z,4.95
2019-01-03T17:38:39.713Z,3.60
2019-01-03T17:41:06.463Z,4.00
2019-01-03T17:43:34.027Z,5.15
2019-01-03T17:46:00.903Z,1.40
2019-01-03T17:48:28.060Z,1.50
2019-01-03T17:50:55.255Z,1.50
2019-01-03T17:53:22.567Z,1.60
2019-01-03T17:55:52.855Z,1.20
2019-01-03T17:58:20.036Z,1.82
2019-01-03T18:00:46.988Z,1.22
2019-01-03T18:03:14.056Z,2.40
2019-01-03T18:05:41.607Z,2.22
2019-01-03T18:08:08.809Z,1.87
2019-01-03T18:10:35.774Z,1.82
2019-01-03T18:13:03.059Z,1.77
2019-01-03T18:15:29.909Z,1.87
2019-01-03T18:17:56.879Z,2.02
2019-01-03T18:20:23.869Z,2.15
2019-01-03T18:22:50.927Z,1.10
2019-01-03T18:25:17.692Z,2.95
2019-01-03T18:27:46.232Z,3.55
2019-01-03T18:30:13.046Z,2.77
2019-01-03T18:32:40.124Z,1.80
2019-01-03T18:35:07.395Z,1.67
2019-01-03T18:37:34.166Z,3.40
2019-01-03T18:40:10.344Z,2.80
2019-01-03T18:42:38.484Z,1.70
2019-01-03T18:45:06.092Z,1.90
2019-01-03T18:47:32.786Z,2.37
2019-01-03T18:50:00.043Z,0.90
2019-01-03T18:52:27.210Z,1.82
2019-01-03T18:54:54.483Z,1.67
2019-01-03T18:57:21.790Z,3.10
2019-01-03T18:59:48.771Z,2.50
2019-01-03T19:02:15.685Z,2.05
2019-01-03T19:04:48.746Z,1.95
2019-01-03T19:07:11.584Z,1.75
2019-01-03T19:09:38.871Z,1.00
2019-01-03T19:12:06.219Z,0.90
2019-01-03T19:14:33.491Z,2.02
2019-01-03T19:17:00.556Z,1.50
2019-01-03T19:19:27.611Z,1.30
2019-01-03T19:21:54.312Z,1.22
2019-01-03T19:24:22.699Z,2.40
2019-01-03T19:26:52.514Z,1.52
2019-01-03T19:29:19.381Z,1.65
2019-01-03T19:31:46.464Z,1.87
2019-01-03T19:34:13.520Z,2.87
2019-01-03T19:36:40.893Z,1.95
2019-01-03T19:39:08.074Z,2.45
2019-01-03T19:41:35.106Z,3.12
2019-01-03T19:44:02.307Z,2.95
2019-01-03T19:46:29.269Z,3.60
2019-01-03T19:48:56.447Z,2.77
2019-01-03T19:51:23.424Z,2.55
2019-01-03T19:53:50.392Z,2.15
2019-01-03T19:56:17.381Z,2.85
2019-01-03T19:58:44.937Z,3.30
2019-01-03T20:01:12.006Z,3.30
2019-01-03T20:03:39.081Z,3.60
2019-01-03T20:06:06.142Z,4.90
2019-01-03T20:08:33.360Z,4.67
2019-01-03T20:11:00.376Z,3.92
2019-01-03T20:13:27.431Z,4.75
2019-01-03T20:15:54.328Z,2.62
2019-01-03T20:18:21.707Z,2.27
2019-01-03T20:20:52.944Z,3.00
2019-01-03T20:23:20.508Z,2.75
2019-01-03T20:25:47.810Z,2.25
2019-01-03T20:28:14.680Z,1.67
2019-01-03T20:30:41.854Z,1.70
2019-01-03T20:33:08.921Z,1.75
2019-01-03T20:35:35.924Z,1.42
2019-01-03T20:38:03.046Z,1.70
2019-01-03T20:40:30.201Z,1.92
2019-01-03T20:42:57.202Z,1.85
2019-01-03T20:45:25.806Z,1.77
2019-01-03T20:47:52.769Z,1.67
2019-01-03T20:50:22.825Z,1.72
2019-01-03T20:52:49.663Z,1.80
2019-01-03T20:55:16.726Z,2.70
2019-01-03T20:57:43.669Z,2.87
2019-01-03T21:00:10.763Z,5.70
2019-01-03T21:02:37.628Z,4.08
2019-01-03T21:05:04.564Z,4.00
2019-01-03T21:07:31.488Z,3.80
2019-01-03T21:09:58.331Z,3.10
2019-01-03T21:12:25.293Z,2.20
2019-01-03T21:14:52.282Z,2.15
2019-01-03T21:17:19.035Z,2.30
2019-01-03T21:19:45.695Z,2.15
2019-01-03T21:22:12.926Z,2.33
2019-01-03T21:24:39.479Z,2.70
2019-01-03T21:27:06.166Z,3.02
2019-01-03T21:29:32.981Z,4.28
2019-01-03T21:31:59.546Z,2.60
2019-01-03T21:34:26.348Z,2.58
2019-01-03T21:36:53.071Z,2.50
2019-01-03T21:39:19.667Z,2.80
2019-01-03T21:41:46.185Z,3.08
2019-01-03T21:44:12.826Z,3.00
2019-01-03T21:46:39.409Z,1.90
2019-01-03T21:49:06.044Z,2.15
2019-01-03T21:51:32.664Z,3.10
2019-01-03T21:53:59.344Z,1.82
2019-01-03T21:56:25.923Z,2.47
2019-01-03T21:58:52.584Z,2.58
2019-01-03T22:01:19.203Z,2.12
2019-01-03T22:03:45.721Z,2.92
2019-01-03T22:06:12.882Z,2.25
2019-01-03T22:08:39.326Z,2.80
2019-01-03T22:11:05.886Z,3.22
2019-01-03T22:13:32.506Z,3.35
2019-01-03T22:15:59.068Z,3.50
2019-01-03T22:18:25.607Z,3.33
2019-01-03T22:20:52.246Z,3.58
2019-01-03T22:23:18.746Z,3.65
2019-01-03T22:25:45.327Z,4.40
2019-01-03T22:28:11.947Z,4.60
2019-01-03T22:30:38.587Z,4.45
2019-01-03T22:33:05.253Z,3.50
2019-01-03T22:35:31.873Z,3.72
2019-01-03T22:37:58.537Z,5.15
2019-01-03T22:40:25.056Z,4.78
2019-01-03T22:42:51.602Z,3.02
2019-01-03T22:45:18.155Z,4.22
2019-01-03T22:47:44.691Z,3.87
2019-01-03T22:50:11.589Z,3.87
2019-01-03T22:52:38.129Z,3.95
2019-01-03T22:55:04.703Z,3.85
2019-01-03T22:57:31.500Z,4.53
2019-01-03T22:59:58.343Z,4.33
2019-01-03T23:02:24.864Z,5.78
2019-01-03T23:04:51.482Z,5.85
2019-01-03T23:07:18.081Z,5.87
2019-01-03T23:09:44.702Z,6.30
2019-01-03T23:12:11.304Z,7.22
2019-01-03T23:14:37.810Z,7.03
2019-01-03T23:17:04.367Z,7.92
2019-01-03T23:19:30.992Z,6.80
2019-01-03T23:21:57.744Z,8.35
2019-01-03T23:24:24.288Z,8.20
2019-01-03T23:26:51.003Z,8.80
2019-01-03T23:29:17.584Z,8.50
2019-01-03T23:31:44.229Z,7.22
2019-01-03T23:34:10.860Z,8.25
2019-01-03T23:36:37.596Z,6.97
2019-01-03T23:39:04.425Z,6.67
2019-01-03T23:41:31.354Z,7.72
2019-01-03T23:43:57.992Z,5.53
2019-01-03T23:46:25.002Z,4.85
2019-01-03T23:48:51.972Z,4.85
2019-01-03T23:51:19.241Z,4.75
2019-01-03T23:53:46.084Z,4.45
2019-01-03T23:56:13.107Z,4.08
2019-01-03T23:58:39.941Z,4.33
